Time;durP1;ratioP1;P1;durP2;ratioP2;P2;SDS_P1;SDS_P2;PMS_P1;PMS_P2;Temp;Humidity;BMP_temperature;BMP_pressure;BME280_temperature;BME280_humidity;BME280_pressure;Samples;Min_cycle;Max_cycle;Signal;HPM_P1;HPM_P2
2021/01/01 00:01:34;;;;;;;54.77;38.83;;;5.10;1.00;;;;;;4990656;28;20483;-58
2021/01/01 00:04:00;;;;;;;46.87;36.00;;;5.10;1.00;;;;;;4990913;28;20446;-58
2021/01/01 00:06:26;;;;;;;46.80;34.83;;;5.10;1.00;;;;;;4990888;28;20440;-58
2021/01/01 00:08:52;;;;;;;60.33;38.27;;;5.10;1.00;;;;;;4991064;28;20182;-58
2021/01/01 00:11:18;;;;;;;52.40;37.70;;;5.10;1.00;;;;;;4990928;28;20818;-61
2021/01/01 00:13:43;;;;;;;46.67;34.10;;;5.10;1.00;;;;;;4990783;28;20190;-59
2021/01/01 00:16:10;;;;;;;54.00;37.03;;;5.00;1.00;;;;;;4990881;28;20189;-57
2021/01/01 00:18:37;;;;;;;52.50;37.73;;;5.00;1.00;;;;;;4990656;28;20196;-59
2021/01/01 00:21:02;;;;;;;51.23;36.20;;;5.00;1.00;;;;;;4991192;28;20437;-59
2021/01/01 00:23:28;;;;;;;52.43;35.40;;;5.00;1.00;;;;;;4990393;28;20777;-58
2021/01/01 00:25:53;;;;;;;47.90;36.43;;;5.00;1.00;;;;;;4986377;28;20186;-59
2021/01/01 00:28:19;;;;;;;47.30;34.97;;;5.10;1.00;;;;;;4990608;28;20799;-58
2021/01/01 00:30:45;;;;;;;47.47;34.63;;;5.10;1.00;;;;;;4989036;28;20304;-59
2021/01/01 00:33:10;;;;;;;46.63;34.13;;;5.10;1.00;;;;;;4990144;28;20607;-62
2021/01/01 00:35:36;;;;;;;48.50;34.90;;;5.10;1.00;;;;;;4990850;28;20217;-58
2021/01/01 00:38:01;;;;;;;57.50;36.23;;;5.10;1.00;;;;;;4990651;28;20535;-58
2021/01/01 00:40:27;;;;;;;47.77;35.03;;;5.00;1.00;;;;;;4990721;28;20190;-58
2021/01/01 00:42:53;;;;;;;52.30;36.30;;;5.00;1.00;;;;;;4989044;28;21344;-57
2021/01/01 00:45:18;;;;;;;52.10;34.67;;;5.00;1.00;;;;;;4989069;28;20189;-58
2021/01/01 00:47:48;;;;;;;47.17;34.23;;;5.00;1.00;;;;;;4990477;28;20265;-58
2021/01/01 00:50:14;;;;;;;48.93;33.03;;;5.00;1.00;;;;;;4989981;28;20237;-59
2021/01/01 00:52:40;;;;;;;46.13;32.63;;;4.90;1.00;;;;;;4989390;28;20496;-59
2021/01/01 00:55:07;;;;;;;42.00;32.07;;;4.90;1.00;;;;;;4990231;28;20437;-59
2021/01/01 00:57:33;;;;;;;49.63;32.90;;;4.80;1.00;;;;;;4989279;28;20473;-59
2021/01/01 00:59:59;;;;;;;38.30;29.40;;;4.80;1.00;;;;;;4990236;28;20863;-58
2021/01/01 01:02:25;;;;;;;45.40;28.57;;;4.70;1.00;;;;;;4990858;28;20931;-58
2021/01/01 01:04:50;;;;;;;35.77;27.60;;;4.70;1.00;;;;;;4993551;28;20448;-57
2021/01/01 01:07:16;;;;;;;43.83;30.17;;;4.60;1.00;;;;;;4994055;28;20186;-58
2021/01/01 01:09:42;;;;;;;34.80;26.23;;;4.60;1.00;;;;;;4994168;28;20209;-58
2021/01/01 01:12:08;;;;;;;43.40;28.23;;;4.70;1.00;;;;;;4987158;23;20250;-58
2021/01/01 01:14:34;;;;;;;35.67;26.57;;;4.70;1.00;;;;;;4973479;28;20454;-59
2021/01/01 01:17:00;;;;;;;38.23;24.90;;;4.90;1.00;;;;;;4974859;28;20469;-57
2021/01/01 01:19:25;;;;;;;35.10;24.40;;;5.00;1.00;;;;;;4973019;28;20187;-59
2021/01/01 01:21:51;;;;;;;38.47;25.80;;;4.90;1.00;;;;;;4974026;28;20183;-59
2021/01/01 01:24:18;;;;;;;34.07;24.60;;;5.00;1.00;;;;;;4974345;28;20663;-59
2021/01/01 01:26:44;;;;;;;33.10;23.70;;;5.00;1.00;;;;;;4974697;28;20198;-60
2021/01/01 01:29:09;;;;;;;33.83;25.40;;;4.90;1.00;;;;;;4974044;28;20913;-57
2021/01/01 01:31:35;;;;;;;29.60;23.27;;;4.90;1.00;;;;;;4974350;28;20476;-57
2021/01/01 01:34:02;;;;;;;30.20;20.87;;;4.90;1.00;;;;;;4974075;28;20195;-58
2021/01/01 01:36:27;;;;;;;31.20;21.80;;;4.90;1.00;;;;;;4972318;28;20660;-59
2021/01/01 01:38:53;;;;;;;26.90;21.40;;;5.00;1.00;;;;;;4974013;28;20481;-59
2021/01/01 01:41:19;;;;;;;29.67;21.63;;;5.00;1.00;;;;;;4973319;28;20590;-58
2021/01/01 01:43:44;;;;;;;28.90;19.83;;;5.00;1.00;;;;;;4974078;28;20190;-58
2021/01/01 01:46:10;;;;;;;28.97;20.10;;;5.10;1.00;;;;;;4974175;28;20194;-59
2021/01/01 01:48:38;;;;;;;29.27;19.90;;;5.10;1.00;;;;;;4935997;28;215030;-59
2021/01/01 01:51:04;;;;;;;27.77;20.30;;;5.10;1.00;;;;;;4935216;29;20212;-58
2021/01/01 01:53:33;;;;;;;31.13;22.53;;;5.10;1.00;;;;;;4935518;29;20444;-59
2021/01/01 01:56:00;;;;;;;31.10;20.90;;;5.20;1.00;;;;;;4935011;29;20948;-59
2021/01/01 01:58:26;;;;;;;32.37;20.83;;;5.10;1.00;;;;;;4934183;29;20870;-57
2021/01/01 02:00:57;;;;;;;30.13;21.30;;;5.00;1.00;;;;;;4934820;29;20440;-58
2021/01/01 02:03:24;;;;;;;32.57;20.20;;;5.10;1.00;;;;;;4934893;29;20448;-58
2021/01/01 02:05:50;;;;;;;28.37;20.13;;;5.00;1.00;;;;;;4935111;29;20452;-58
2021/01/01 02:08:15;;;;;;;35.70;21.57;;;5.00;1.00;;;;;;4934373;29;20482;-57
2021/01/01 02:10:41;;;;;;;31.80;20.80;;;5.00;1.00;;;;;;4934490;29;20238;-59
2021/01/01 02:13:09;;;;;;;32.00;21.00;;;5.00;1.00;;;;;;4934143;29;20218;-58
2021/01/01 02:15:35;;;;;;;25.03;19.07;;;5.20;1.00;;;;;;4932610;29;20448;-57
2021/01/01 02:18:00;;;;;;;25.10;18.30;;;5.10;1.00;;;;;;4934468;29;20954;-58
2021/01/01 02:20:26;;;;;;;26.90;18.60;;;5.10;1.00;;;;;;4934683;29;20257;-59
2021/01/01 02:22:52;;;;;;;23.00;17.40;;;5.20;1.00;;;;;;4934690;29;20225;-58
2021/01/01 02:25:18;;;;;;;23.20;17.20;;;5.30;1.00;;;;;;4934049;29;20234;-57
2021/01/01 02:27:43;;;;;;;29.40;18.70;;;5.20;1.00;;;;;;4934809;29;20439;-57
2021/01/01 02:30:10;;;;;;;26.77;17.83;;;5.20;1.00;;;;;;4934006;29;20485;-58
2021/01/01 02:32:35;;;;;;;24.37;17.57;;;5.20;1.00;;;;;;4931792;29;20581;-58
2021/01/01 02:35:02;;;;;;;23.83;15.93;;;5.20;1.00;;;;;;4932680;29;20455;-59
2021/01/01 02:37:28;;;;;;;25.97;17.13;;;5.10;1.00;;;;;;4935953;29;20205;-57
2021/01/01 02:39:53;;;;;;;26.20;18.60;;;5.10;1.00;;;;;;4931040;29;20481;-58
2021/01/01 02:42:19;;;;;;;25.73;17.43;;;5.30;1.00;;;;;;4930901;29;20558;-58
2021/01/01 02:44:47;;;;;;;26.40;16.73;;;5.10;1.00;;;;;;4929859;29;20924;-58
2021/01/01 02:47:14;;;;;;;22.97;15.77;;;5.20;1.00;;;;;;4930692;29;20202;-57
2021/01/01 02:49:40;;;;;;;22.83;15.57;;;5.20;1.00;;;;;;4931773;29;20483;-58
2021/01/01 02:52:05;;;;;;;26.13;15.83;;;5.20;1.00;;;;;;4928476;29;20487;-57
2021/01/01 02:54:31;;;;;;;24.60;16.63;;;5.10;1.00;;;;;;4928390;29;20539;-57
2021/01/01 02:56:57;;;;;;;25.90;17.90;;;5.10;1.00;;;;;;4933346;29;20188;-57
2021/01/01 02:59:22;;;;;;;28.40;18.27;;;5.20;1.00;;;;;;4934078;29;20279;-59
2021/01/01 03:01:48;;;;;;;22.43;16.57;;;5.20;1.00;;;;;;4933062;29;20279;-57
2021/01/01 03:04:14;;;;;;;27.63;16.70;;;5.20;1.00;;;;;;4931927;29;20207;-58
2021/01/01 03:06:39;;;;;;;24.40;17.90;;;5.10;1.00;;;;;;4933046;29;20220;-57
2021/01/01 03:09:05;;;;;;;24.27;17.27;;;5.10;1.00;;;;;;4932067;29;20187;-57
2021/01/01 03:11:31;;;;;;;23.80;16.27;;;4.90;1.00;;;;;;4932987;29;20693;-57
2021/01/01 03:13:57;;;;;;;24.60;17.40;;;5.00;1.00;;;;;;4932009;29;20187;-57
2021/01/01 03:16:23;;;;;;;24.50;17.30;;;5.10;1.00;;;;;;4931281;29;20443;-56
2021/01/01 03:18:48;;;;;;;22.83;16.93;;;5.00;1.00;;;;;;4933372;29;20809;-58
2021/01/01 03:21:16;;;;;;;28.23;18.23;;;5.00;1.00;;;;;;4931317;29;20233;-56
2021/01/01 03:23:42;;;;;;;26.23;18.20;;;5.00;1.00;;;;;;4932140;29;20263;-56
2021/01/01 03:26:07;;;;;;;25.20;17.63;;;4.90;1.00;;;;;;4931532;29;20519;-59
2021/01/01 03:28:33;;;;;;;25.70;19.00;;;4.80;1.00;;;;;;4933232;29;20471;-59
2021/01/01 03:30:59;;;;;;;26.73;17.70;;;4.80;1.00;;;;;;4931309;29;20204;-59
2021/01/01 03:33:24;;;;;;;20.13;17.20;;;4.90;1.00;;;;;;4933414;29;20202;-57
2021/01/01 03:35:50;;;;;;;26.43;16.30;;;4.90;1.00;;;;;;4932429;29;20506;-58
2021/01/01 03:38:15;;;;;;;25.83;19.30;;;5.00;1.00;;;;;;4933302;29;20188;-56
2021/01/01 03:40:41;;;;;;;24.87;16.67;;;5.00;1.00;;;;;;4930058;29;20700;-56
2021/01/01 03:43:07;;;;;;;25.60;17.67;;;5.00;1.00;;;;;;4933375;29;20271;-58
2021/01/01 03:45:32;;;;;;;22.17;16.13;;;4.90;1.00;;;;;;4933445;29;20192;-58
2021/01/01 03:47:58;;;;;;;26.00;17.90;;;5.10;1.00;;;;;;4932004;29;20250;-58
2021/01/01 03:50:23;;;;;;;31.00;19.53;;;5.10;1.00;;;;;;4932841;29;20237;-57
2021/01/01 03:52:49;;;;;;;27.73;17.80;;;5.00;1.00;;;;;;4931800;29;20299;-57
2021/01/01 03:55:15;;;;;;;23.63;17.00;;;5.10;1.00;;;;;;4932482;29;20200;-58
2021/01/01 03:57:40;;;;;;;24.03;16.67;;;5.00;1.00;;;;;;4933073;29;20177;-57
2021/01/01 04:00:07;;;;;;;25.50;18.00;;;5.10;1.00;;;;;;4931002;29;20196;-57
2021/01/01 04:02:33;;;;;;;27.07;18.00;;;5.00;1.00;;;;;;4931370;29;20267;-58
2021/01/01 04:04:59;;;;;;;25.27;18.33;;;5.10;1.00;;;;;;4931664;29;20444;-58
2021/01/01 04:07:24;;;;;;;23.77;16.43;;;5.00;1.00;;;;;;4930215;29;20810;-57
2021/01/01 04:09:50;;;;;;;27.23;18.30;;;5.10;1.00;;;;;;4930515;29;20248;-58
2021/01/01 04:12:16;;;;;;;25.47;18.07;;;5.10;1.00;;;;;;4932448;29;20547;-58
2021/01/01 04:14:41;;;;;;;24.80;19.17;;;5.20;1.00;;;;;;4931221;29;20541;-57
2021/01/01 04:17:07;;;;;;;26.30;18.40;;;5.20;1.00;;;;;;4932764;29;20195;-57
2021/01/01 04:19:33;;;;;;;25.40;18.83;;;5.20;1.00;;;;;;4931990;29;20537;-58
2021/01/01 04:21:58;;;;;;;25.80;18.23;;;5.20;1.00;;;;;;4932442;29;20196;-57
2021/01/01 04:24:24;;;;;;;25.57;18.47;;;5.20;1.00;;;;;;4932572;29;20183;-58
2021/01/01 04:26:49;;;;;;;26.07;17.27;;;5.20;1.00;;;;;;4929381;29;20187;-58
2021/01/01 04:29:15;;;;;;;28.60;20.70;;;5.20;1.00;;;;;;4931637;29;20188;-57
2021/01/01 04:31:41;;;;;;;27.07;17.60;;;5.00;1.00;;;;;;4932230;29;20192;-58
2021/01/01 04:34:07;;;;;;;28.30;19.73;;;5.00;1.00;;;;;;4931773;29;20494;-57
2021/01/01 04:36:34;;;;;;;32.37;20.90;;;5.00;1.00;;;;;;4931742;29;21031;-57
2021/01/01 04:38:59;;;;;;;31.00;20.60;;;4.90;1.00;;;;;;4934623;29;20192;-56
2021/01/01 04:41:26;;;;;;;26.80;18.40;;;4.80;1.00;;;;;;4935698;29;20817;-57
2021/01/01 04:43:52;;;;;;;29.57;21.43;;;4.70;1.00;;;;;;4935667;29;20665;-57
2021/01/01 04:46:19;;;;;;;32.00;19.40;;;4.60;1.00;;;;;;4935344;29;20456;-57
2021/01/01 04:48:45;;;;;;;32.10;21.37;;;4.70;1.00;;;;;;4936433;29;20450;-57
2021/01/01 04:51:12;;;;;;;32.80;21.00;;;4.60;1.00;;;;;;4935455;29;20821;-57
2021/01/01 04:53:39;;;;;;;26.40;19.23;;;4.60;1.00;;;;;;4936039;29;20963;-58
2021/01/01 04:56:06;;;;;;;30.47;20.53;;;4.60;1.00;;;;;;4934383;29;20471;-57
2021/01/01 04:58:33;;;;;;;28.97;20.07;;;4.60;1.00;;;;;;4936105;29;20455;-58
2021/01/01 05:00:59;;;;;;;31.43;20.33;;;4.60;1.00;;;;;;4934381;29;20946;-56
2021/01/01 05:03:25;;;;;;;34.30;20.20;;;4.60;1.00;;;;;;4934038;29;20455;-57
2021/01/01 05:05:51;;;;;;;32.40;22.00;;;4.70;1.00;;;;;;4935221;29;20438;-56
2021/01/01 05:08:18;;;;;;;30.43;20.43;;;4.70;1.00;;;;;;4936194;29;20765;-56
2021/01/01 05:10:44;;;;;;;30.43;21.70;;;4.60;1.00;;;;;;4934976;29;20483;-57
2021/01/01 05:13:11;;;;;;;26.83;19.03;;;4.70;1.00;;;;;;4934760;29;20455;-58
2021/01/01 05:15:38;;;;;;;32.10;21.17;;;4.70;1.00;;;;;;4936049;29;20444;-56
2021/01/01 05:18:25;;;;;;;32.13;22.20;;;4.60;1.00;;;;;;4935147;29;20772;-58
2021/01/01 05:20:54;;;;;;;29.23;20.20;;;4.70;1.00;;;;;;4935198;28;20456;-58
2021/01/01 05:23:22;;;;;;;31.03;21.50;;;4.70;1.00;;;;;;4935953;29;20472;-57
2021/01/01 05:26:04;;;;;;;29.73;20.37;;;4.70;1.00;;;;;;4933990;29;20463;-57
2021/01/01 05:28:56;;;;;;;29.97;20.37;;;4.80;1.00;;;;;;4916743;29;20498;-57
2021/01/01 05:31:26;;;;;;;34.40;21.20;;;4.80;1.00;;;;;;4933585;29;20477;-58
2021/01/01 05:34:02;;;;;;;27.40;18.50;;;4.80;1.00;;;;;;4934316;29;21835;-58
2021/01/01 05:36:34;;;;;;;28.37;19.77;;;4.70;1.00;;;;;;4935027;29;20446;-59
2021/01/01 05:39:02;;;;;;;29.57;19.53;;;4.70;1.00;;;;;;4934220;29;20456;-60
2021/01/01 05:41:36;;;;;;;29.10;20.67;;;4.70;1.00;;;;;;4932570;29;20491;-57
2021/01/01 05:44:25;;;;;;;31.13;19.50;;;4.70;1.00;;;;;;4934337;29;20797;-58
2021/01/01 05:46:56;;;;;;;31.13;21.13;;;4.70;1.00;;;;;;4930951;29;20841;-57
2021/01/01 05:49:23;;;;;;;30.20;20.70;;;4.70;1.00;;;;;;4934529;29;20444;-58
2021/01/01 05:52:10;;;;;;;32.00;21.90;;;4.80;1.00;;;;;;4932327;29;22118;-58
2021/01/01 05:54:39;;;;;;;31.27;20.90;;;4.80;1.00;;;;;;4935278;29;20451;-59
2021/01/01 05:57:06;;;;;;;29.73;20.90;;;4.70;1.00;;;;;;4933182;29;20458;-58
2021/01/01 05:59:35;;;;;;;27.97;20.00;;;4.70;1.00;;;;;;4934012;29;20963;-56
2021/01/01 06:02:02;;;;;;;34.63;20.50;;;4.60;1.00;;;;;;4932287;29;20506;-59
2021/01/01 06:04:28;;;;;;;31.07;21.10;;;4.70;1.00;;;;;;4933897;29;20989;-58
2021/01/01 06:06:54;;;;;;;33.00;21.00;;;4.70;1.00;;;;;;4934273;29;20452;-58
2021/01/01 06:09:23;;;;;;;32.23;22.53;;;4.70;1.00;;;;;;4933661;29;20436;-58
2021/01/01 06:12:09;;;;;;;33.03;21.40;;;4.80;1.00;;;;;;4934135;29;20478;-58
2021/01/01 06:14:36;;;;;;;35.33;21.03;;;4.70;1.00;;;;;;4933778;29;20447;-56
2021/01/01 06:17:15;;;;;;;32.07;21.13;;;4.70;1.00;;;;;;4934715;29;20436;-59
2021/01/01 06:19:50;;;;;;;33.00;21.30;;;4.70;1.00;;;;;;4933343;29;20448;-58
2021/01/01 06:22:16;;;;;;;33.07;21.30;;;4.80;1.00;;;;;;4934385;28;20499;-59
2021/01/01 06:24:48;;;;;;;29.53;20.83;;;5.20;1.00;;;;;;4933576;29;20483;-59
2021/01/01 06:27:13;;;;;;;34.83;21.33;;;4.80;1.00;;;;;;4932033;29;20244;-58
2021/01/01 06:29:42;;;;;;;33.30;22.30;;;4.90;1.00;;;;;;4934516;29;21023;-58
2021/01/01 06:32:09;;;;;;;32.20;20.73;;;4.80;1.00;;;;;;4934541;29;20882;-58
2021/01/01 06:34:35;;;;;;;30.33;20.93;;;4.80;1.00;;;;;;4934101;29;20952;-58
2021/01/01 06:37:01;;;;;;;29.00;19.90;;;4.80;1.00;;;;;;4933932;29;20472;-59
2021/01/01 06:39:40;;;;;;;33.20;23.43;;;4.80;1.00;;;;;;4934270;29;20249;-58
2021/01/01 06:42:07;;;;;;;27.97;20.10;;;4.80;1.00;;;;;;4934269;29;20172;-57
2021/01/01 06:44:34;;;;;;;36.90;21.20;;;4.80;1.00;;;;;;4934388;29;20523;-58
2021/01/01 06:47:00;;;;;;;35.70;21.00;;;4.90;1.00;;;;;;4934142;29;20444;-59
2021/01/01 06:49:34;;;;;;;37.20;23.90;;;5.00;1.00;;;;;;4934028;29;20966;-58
2021/01/01 06:52:10;;;;;;;31.23;21.83;;;4.90;1.00;;;;;;4932090;29;20466;-56
2021/01/01 06:54:55;;;;;;;31.33;21.37;;;4.90;1.00;;;;;;4934185;29;20556;-57
2021/01/01 06:57:29;;;;;;;27.20;20.20;;;5.00;1.00;;;;;;4931911;29;20490;-58
2021/01/01 06:59:56;;;;;;;29.50;19.50;;;5.00;1.00;;;;;;4933023;29;20519;-57
2021/01/01 07:02:25;;;;;;;29.00;21.17;;;4.90;1.00;;;;;;4933805;29;20507;-57
2021/01/01 07:04:52;;;;;;;28.47;19.97;;;4.90;1.00;;;;;;4933991;29;20476;-57
2021/01/01 07:07:53;;;;;;;32.90;21.20;;;4.90;1.00;;;;;;4930225;29;20522;-59
2021/01/01 07:10:34;;;;;;;28.37;21.00;;;4.90;1.00;;;;;;4892952;29;20489;-57
2021/01/01 07:13:16;;;;;;;33.40;21.57;;;4.90;1.00;;;;;;4929177;29;20480;-58
2021/01/01 07:15:42;;;;;;;30.83;22.30;;;4.90;1.00;;;;;;4932803;29;20451;-57
2021/01/01 07:18:07;;;;;;;33.20;21.80;;;5.00;1.00;;;;;;4933882;29;20442;-59
2021/01/01 07:20:39;;;;;;;33.80;19.93;;;4.90;1.00;;;;;;4933474;29;20673;-57
2021/01/01 07:23:05;;;;;;;38.80;22.80;;;5.00;1.00;;;;;;4933669;29;20661;-58
2021/01/01 07:25:38;;;;;;;32.23;21.83;;;5.10;1.00;;;;;;4931951;29;20903;-58
2021/01/01 07:28:05;;;;;;;31.17;22.33;;;5.10;1.00;;;;;;4932249;29;20462;-57
2021/01/01 07:30:32;;;;;;;33.07;21.30;;;5.10;1.00;;;;;;4932867;29;20502;-59
2021/01/01 07:32:58;;;;;;;34.13;21.30;;;5.10;1.00;;;;;;4930265;29;20539;-57
2021/01/01 07:35:25;;;;;;;29.63;20.73;;;5.10;1.00;;;;;;4933993;29;20484;-58
2021/01/01 07:37:52;;;;;;;31.93;22.50;;;5.20;1.00;;;;;;4932530;29;20794;-58
2021/01/01 07:40:18;;;;;;;26.03;19.60;;;5.10;1.00;;;;;;4931408;29;20455;-58
2021/01/01 07:42:51;;;;;;;32.90;20.30;;;5.00;1.00;;;;;;4933034;29;20467;-58
2021/01/01 07:45:18;;;;;;;34.60;22.13;;;5.30;1.00;;;;;;4931011;29;20503;-57
2021/01/01 07:47:47;;;;;;;37.13;23.17;;;5.30;1.00;;;;;;4931588;29;20543;-57
2021/01/01 07:50:17;;;;;;;33.30;22.93;;;5.30;1.00;;;;;;4932597;29;20870;-61
2021/01/01 07:52:44;;;;;;;30.37;20.50;;;5.40;1.00;;;;;;4933278;29;20444;-61
2021/01/01 07:55:11;;;;;;;33.27;21.27;;;5.40;1.00;;;;;;4930846;29;20455;-57
2021/01/01 07:57:39;;;;;;;32.90;21.47;;;5.30;1.00;;;;;;4932526;29;20822;-58
2021/01/01 08:00:07;;;;;;;32.90;20.93;;;5.40;1.00;;;;;;4932751;29;20456;-60
2021/01/01 08:02:32;;;;;;;30.50;20.73;;;5.40;1.00;;;;;;4931959;29;20801;-57
2021/01/01 08:05:02;;;;;;;29.80;19.47;;;5.40;1.00;;;;;;4932968;29;20440;-58
2021/01/01 08:07:27;;;;;;;29.13;20.70;;;5.30;1.00;;;;;;4932523;29;20239;-57
2021/01/01 08:09:53;;;;;;;28.70;19.60;;;5.40;1.00;;;;;;4932889;29;20475;-58
2021/01/01 08:12:18;;;;;;;31.17;20.77;;;5.40;1.00;;;;;;4932951;29;20219;-57
2021/01/01 08:14:48;;;;;;;30.20;19.73;;;5.40;1.00;;;;;;4932787;29;20235;-59
2021/01/01 08:17:21;;;;;;;27.53;19.37;;;5.50;1.00;;;;;;4932381;29;20519;-56
2021/01/01 08:19:47;;;;;;;32.60;20.17;;;5.60;1.00;;;;;;4932836;29;20448;-60
2021/01/01 08:22:16;;;;;;;32.20;21.57;;;5.50;1.00;;;;;;4932928;29;20448;-59
2021/01/01 08:24:48;;;;;;;28.13;19.10;;;5.50;1.00;;;;;;4931227;29;20440;-59
2021/01/01 08:27:14;;;;;;;33.60;20.80;;;5.50;1.00;;;;;;4932658;29;20444;-59
2021/01/01 08:29:40;;;;;;;29.23;20.10;;;5.60;1.00;;;;;;4932809;29;20825;-59
2021/01/01 08:32:07;;;;;;;29.23;21.80;;;5.80;1.00;;;;;;4930936;29;20585;-60
2021/01/01 08:34:32;;;;;;;30.60;19.70;;;5.80;1.00;;;;;;4931897;29;20455;-58
2021/01/01 08:36:58;;;;;;;30.70;21.50;;;5.90;1.00;;;;;;4929921;29;20454;-58
2021/01/01 08:39:25;;;;;;;29.00;20.13;;;5.90;1.00;;;;;;4932644;29;20231;-58
2021/01/01 08:41:51;;;;;;;29.70;20.10;;;6.00;1.00;;;;;;4927881;29;20701;-59
2021/01/01 08:44:17;;;;;;;31.90;21.10;;;6.10;1.00;;;;;;4931580;29;20456;-59
2021/01/01 08:46:43;;;;;;;28.00;19.67;;;6.20;1.00;;;;;;4932549;29;20293;-57
2021/01/01 08:49:21;;;;;;;32.37;21.90;;;7.50;1.00;;;;;;4932548;29;20704;-58
2021/01/01 08:51:48;;;;;;;57.73;35.50;;;6.50;1.00;;;;;;4932396;29;20492;-58
2021/01/01 08:54:27;;;;;;;48.63;29.03;;;7.20;1.00;;;;;;4931281;29;20546;-57
2021/01/01 08:57:01;;;;;;;41.70;29.07;;;6.80;1.00;;;;;;4929360;29;20439;-60
2021/01/01 08:59:28;;;;;;;37.13;25.50;;;6.70;1.00;;;;;;4946898;29;20439;-57
2021/01/01 09:01:54;;;;;;;33.20;22.83;;;;;;;;;;4929989;29;20767;-59
2021/01/01 09:04:28;;;;;;;32.20;21.60;;;6.70;1.00;;;;;;4931344;29;20459;-58
2021/01/01 09:07:02;;;;;;;34.80;23.43;;;6.80;1.00;;;;;;4932290;29;20491;-58
2021/01/01 09:09:30;;;;;;;29.17;21.60;;;7.00;1.00;;;;;;4931590;29;20815;-59
2021/01/01 09:12:22;;;;;;;27.40;20.60;;;6.90;1.00;;;;;;4931267;29;20515;-58
2021/01/01 09:14:52;;;;;;;33.27;21.63;;;6.90;1.00;;;;;;4930039;29;20444;-58
2021/01/01 09:17:19;;;;;;;37.57;22.73;;;6.90;1.00;;;;;;4929708;29;20470;-59
2021/01/01 09:19:45;;;;;;;27.00;20.63;;;6.90;1.00;;;;;;4931505;29;20443;-57
2021/01/01 09:22:18;;;;;;;37.57;23.53;;;7.00;1.00;;;;;;4927938;29;20455;-57
2021/01/01 09:24:45;;;;;;;38.43;24.07;;;7.00;1.00;;;;;;4931493;29;20234;-58
2021/01/01 09:27:11;;;;;;;29.53;20.57;;;7.00;1.00;;;;;;4934437;29;20846;-58
2021/01/01 09:29:37;;;;;;;27.90;19.40;;;7.00;1.00;;;;;;4935193;29;20484;-57
2021/01/01 09:32:09;;;;;;;34.60;21.27;;;7.00;1.00;;;;;;4935470;29;20444;-58
2021/01/01 09:34:35;;;;;;;35.57;21.73;;;6.80;1.00;;;;;;4935395;29;20642;-58
2021/01/01 09:37:11;;;;;;;29.80;21.60;;;6.80;1.00;;;;;;4935209;29;20440;-56
2021/01/01 09:39:38;;;;;;;31.07;21.47;;;6.50;1.00;;;;;;4932603;29;20186;-57
2021/01/01 09:42:04;;;;;;;30.73;20.47;;;6.70;1.00;;;;;;4934488;29;20436;-57
2021/01/01 09:44:29;;;;;;;31.90;21.17;;;6.60;1.00;;;;;;4935376;29;20936;-59
2021/01/01 09:46:55;;;;;;;33.70;20.70;;;6.70;1.00;;;;;;4935111;29;20440;-58
2021/01/01 09:49:21;;;;;;;30.60;20.27;;;6.70;1.00;;;;;;4932662;29;20242;-59
2021/01/01 09:51:47;;;;;;;29.47;19.70;;;6.70;1.00;;;;;;4933492;29;20628;-57
2021/01/01 09:54:12;;;;;;;35.17;22.40;;;6.60;1.00;;;;;;4934515;29;20192;-58
2021/01/01 09:56:38;;;;;;;34.60;21.33;;;6.60;1.00;;;;;;4935276;29;20570;-58
2021/01/01 09:59:04;;;;;;;30.20;20.07;;;6.60;1.00;;;;;;4934265;29;20184;-58
2021/01/01 10:01:31;;;;;;;28.97;20.37;;;6.50;1.00;;;;;;4934611;29;20188;-58
2021/01/01 10:03:57;;;;;;;33.37;20.87;;;6.50;1.00;;;;;;4934870;29;20534;-57
2021/01/01 10:06:23;;;;;;;30.20;20.30;;;6.50;1.00;;;;;;4934990;29;20444;-57
2021/01/01 10:08:49;;;;;;;35.70;21.17;;;6.50;1.00;;;;;;4935207;29;20579;-58
2021/01/01 10:11:15;;;;;;;30.90;20.80;;;6.70;1.00;;;;;;4934721;29;20483;-57
2021/01/01 10:13:41;;;;;;;30.40;22.17;;;6.40;1.00;;;;;;4934410;29;20538;-57
2021/01/01 10:16:11;;;;;;;31.30;20.70;;;6.50;1.00;;;;;;4934887;29;20440;-58
2021/01/01 10:18:40;;;;;;;29.07;19.97;;;6.50;1.00;;;;;;4933939;29;20491;-58
2021/01/01 10:21:08;;;;;;;31.03;22.07;;;6.50;1.00;;;;;;4934610;29;20440;-58
2021/01/01 10:23:34;;;;;;;27.80;19.70;;;6.60;1.00;;;;;;4933307;29;20440;-59
2021/01/01 10:25:59;;;;;;;31.77;20.53;;;6.70;1.00;;;;;;4932911;29;20524;-60
2021/01/01 10:28:25;;;;;;;29.23;20.67;;;6.80;1.00;;;;;;4933803;29;20547;-57
2021/01/01 10:30:52;;;;;;;33.43;21.00;;;6.80;1.00;;;;;;4934478;29;20290;-59
2021/01/01 10:33:18;;;;;;;32.80;21.33;;;6.70;1.00;;;;;;4933446;29;20436;-61
2021/01/01 10:35:44;;;;;;;33.57;22.73;;;6.70;1.00;;;;;;4933548;29;20447;-63
2021/01/01 10:38:09;;;;;;;33.33;21.67;;;6.60;1.00;;;;;;4934468;29;20188;-63
2021/01/01 10:40:35;;;;;;;32.07;20.43;;;6.70;1.00;;;;;;4934354;29;20267;-63
2021/01/01 10:43:01;;;;;;;35.37;21.87;;;6.70;1.00;;;;;;4934755;29;20188;-62
2021/01/01 10:45:26;;;;;;;32.10;21.53;;;6.80;1.00;;;;;;4934210;29;20199;-65
2021/01/01 10:47:52;;;;;;;35.27;22.20;;;6.80;1.00;;;;;;4934273;29;20187;-65
2021/01/01 10:50:17;;;;;;;30.87;21.57;;;6.80;1.00;;;;;;4934088;29;20240;-65
2021/01/01 10:52:43;;;;;;;24.40;19.00;;;6.80;1.00;;;;;;4934319;29;20235;-66
2021/01/01 10:55:10;;;;;;;30.03;21.73;;;6.90;1.00;;;;;;4934307;29;20227;-65
2021/01/01 10:57:36;;;;;;;32.33;21.00;;;7.00;1.00;;;;;;4931896;29;20542;-64
2021/01/01 11:00:05;;;;;;;26.93;19.93;;;7.00;1.00;;;;;;4933800;29;20455;-62
2021/01/01 11:02:31;;;;;;;36.30;22.80;;;6.90;1.00;;;;;;4933794;29;20188;-62
2021/01/01 11:04:56;;;;;;;28.60;20.00;;;6.70;1.00;;;;;;4932553;29;20487;-62
2021/01/01 11:07:22;;;;;;;29.80;19.90;;;6.70;1.00;;;;;;4933600;29;20188;-63
2021/01/01 11:09:48;;;;;;;31.07;20.47;;;6.70;1.00;;;;;;4948203;29;20214;-61
2021/01/01 11:12:13;;;;;;;27.90;21.60;;;6.60;1.00;;;;;;4932962;29;20228;-63
2021/01/01 11:15:07;;;;;;;31.17;19.90;;;6.60;1.00;;;;;;4933325;29;20474;-63
2021/01/01 12:21:08;;;;;;;28.30;19.23;;;7.50;1.00;;;;;;4931154;29;20450;-64
2021/01/01 12:26:18;;;;;;;24.43;19.40;;;7.50;1.00;;;;;;4932542;29;20475;-63
2021/01/01 12:28:44;;;;;;;27.67;18.83;;;7.70;1.00;;;;;;4932080;29;20960;-62
2021/01/01 12:31:11;;;;;;;29.57;20.97;;;7.70;1.00;;;;;;4931922;29;20211;-66
2021/01/01 12:33:36;;;;;;;25.97;17.90;;;7.80;1.00;;;;;;4931424;29;20470;-62
2021/01/01 12:36:02;;;;;;;30.50;18.60;;;7.80;1.00;;;;;;4932643;29;20940;-64
2021/01/01 12:38:28;;;;;;;23.83;17.40;;;7.80;1.00;;;;;;4932574;29;20323;-65
2021/01/01 12:40:53;;;;;;;22.17;16.33;;;7.90;1.00;;;;;;4932730;29;20945;-64
2021/01/01 12:43:20;;;;;;;26.03;19.03;;;7.90;1.00;;;;;;4929590;29;20494;-67
2021/01/01 12:45:46;;;;;;;26.07;19.17;;;7.90;1.00;;;;;;4931538;29;20184;-65
2021/01/01 12:48:12;;;;;;;31.57;19.00;;;8.00;1.00;;;;;;4930868;29;20463;-65
2021/01/01 12:50:37;;;;;;;24.20;18.43;;;7.80;1.00;;;;;;4932415;29;20243;-68
2021/01/01 12:53:03;;;;;;;28.63;17.60;;;7.90;1.00;;;;;;4932560;29;20207;-68
2021/01/01 12:55:31;;;;;;;29.75;21.40;;;7.90;1.00;;;;;;4931388;29;20798;-67
2021/01/01 12:57:56;;;;;;;30.07;19.97;;;8.00;1.00;;;;;;4931020;29;20647;-68
2021/01/01 13:00:23;;;;;;;25.37;19.03;;;8.00;1.00;;;;;;4934601;29;20531;-65
2021/01/01 13:02:48;;;;;;;27.60;19.37;;;8.00;1.00;;;;;;4934529;29;20188;-64
2021/01/01 13:05:14;;;;;;;29.63;20.13;;;7.90;1.00;;;;;;4935880;29;20534;-66
2021/01/01 13:07:43;;;;;;;25.47;19.83;;;7.90;1.00;;;;;;4935731;29;20683;-67
2021/01/01 13:10:10;;;;;;;26.80;19.27;;;7.90;1.00;;;;;;4935374;29;20238;-67
2021/01/01 13:12:36;;;;;;;26.80;18.30;;;8.00;1.00;;;;;;4934146;29;21028;-63
2021/01/01 13:15:02;;;;;;;27.57;19.00;;;8.10;1.00;;;;;;4935677;29;20543;-64
2021/01/01 13:17:28;;;;;;;29.00;20.43;;;8.20;1.00;;;;;;4935276;29;20963;-65
2021/01/01 13:19:53;;;;;;;27.73;20.13;;;8.20;1.00;;;;;;4936159;29;20530;-65
2021/01/01 13:22:19;;;;;;;26.60;18.53;;;8.10;1.00;;;;;;4935170;29;20798;-65
2021/01/01 13:24:45;;;;;;;26.00;18.17;;;8.10;1.00;;;;;;4934960;29;20196;-63
2021/01/01 13:27:10;;;;;;;26.17;18.80;;;8.10;1.00;;;;;;4935597;29;20180;-63
2021/01/01 13:29:36;;;;;;;26.60;18.60;;;8.10;1.00;;;;;;4935225;29;20251;-64
2021/01/01 13:32:02;;;;;;;29.20;18.60;;;8.20;1.00;;;;;;4935698;29;20181;-67
2021/01/01 13:34:27;;;;;;;26.23;18.47;;;8.20;1.00;;;;;;4935416;29;20227;-66
2021/01/01 13:36:54;;;;;;;27.33;19.70;;;8.00;1.00;;;;;;4933930;29;20701;-65
2021/01/01 13:39:20;;;;;;;27.80;19.73;;;7.80;1.00;;;;;;4935465;29;20184;-66
2021/01/01 13:41:46;;;;;;;29.80;19.80;;;7.90;1.00;;;;;;4934109;29;20866;-69
2021/01/01 13:44:12;;;;;;;28.53;19.40;;;7.90;1.00;;;;;;4933859;29;21040;-65
2021/01/01 13:46:38;;;;;;;24.93;18.17;;;7.80;1.00;;;;;;4935390;29;20475;-65
2021/01/01 13:49:05;;;;;;;28.77;18.00;;;7.80;1.00;;;;;;4934172;29;20207;-64
2021/01/01 13:51:36;;;;;;;25.93;17.60;;;7.80;1.00;;;;;;4935363;29;20204;-64
2021/01/01 13:54:03;;;;;;;26.40;18.27;;;7.60;1.00;;;;;;4934853;29;20833;-63
2021/01/01 13:56:28;;;;;;;22.23;16.97;;;7.70;1.00;;;;;;4933213;29;20439;-64